McClusky, North Dakota
Current Conditions -  °F | °C
As of 8:15 PM on Thursday 18 Dec 2014 (Local Time) from K5H4 Reporting Station
Overcast Overcast  
Wind Chill: 15°   Ceiling: 600
Heat Index: 23°   Visibility: 7mi
Dew Point: 23°   Wind: 7mph
Humidity: 100%   Direction: 170°S
Pressure: 30.02"   Gusts: NA
Location:  47.49°N, 100.44°W
Report Text: K5H4 190215Z AUTO 17006KT 7SM OVC006 M05/M05 A3002 RMK AO2
Loading
Personal Weather Stations






























Interactive Weather Map New forecast layout! Learn more

10-Day Weather Forecast

Advertisements
Track Severe Weather on mobile